createdAt,value
2018-09-30T00:00:53.627Z,16.88
2018-09-30T00:01:53.631Z,16.88
2018-09-30T00:02:53.645Z,16.88
2018-09-30T00:03:53.680Z,16.88
2018-09-30T00:04:53.703Z,16.88
2018-09-30T00:05:53.727Z,16.88
2018-09-30T00:06:53.738Z,16.88
2018-09-30T00:07:53.746Z,16.88
2018-09-30T00:08:53.784Z,16.88
2018-09-30T00:09:53.786Z,16.88
2018-09-30T00:10:53.809Z,16.88
2018-09-30T00:11:53.825Z,16.88
2018-09-30T00:12:53.845Z,16.88
2018-09-30T00:13:53.865Z,16.88
2018-09-30T00:14:53.913Z,16.88
2018-09-30T00:15:53.895Z,16.88
2018-09-30T00:16:53.939Z,16.88
2018-09-30T00:17:53.957Z,16.88
2018-09-30T00:18:53.980Z,16.88
2018-09-30T00:19:54.000Z,16.88
2018-09-30T00:20:54.004Z,16.88
2018-09-30T00:21:54.024Z,16.88
2018-09-30T00:22:54.056Z,22.50
2018-09-30T00:23:54.078Z,22.50
2018-09-30T00:24:54.100Z,22.50
2018-09-30T00:25:54.107Z,22.50
2018-09-30T00:28:26.025Z,28.13
2018-09-30T00:29:25.774Z,28.13
2018-09-30T00:31:18.754Z,28.13
2018-09-30T00:32:18.767Z,33.75
2018-09-30T00:34:11.794Z,33.75
2018-09-30T00:35:11.758Z,33.75
2018-09-30T00:37:04.735Z,33.75
2018-09-30T00:38:04.750Z,28.13
2018-09-30T00:39:58.023Z,33.75
2018-09-30T00:40:57.740Z,33.75
2018-09-30T00:42:50.717Z,33.75
2018-09-30T00:43:50.732Z,33.75
2018-09-30T00:45:43.989Z,33.75
2018-09-30T00:46:43.722Z,33.75
2018-09-30T00:48:36.702Z,28.13
2018-09-30T00:49:36.730Z,28.13
2018-09-30T00:51:29.990Z,28.13
2018-09-30T00:52:29.709Z,28.13
2018-09-30T00:54:22.708Z,28.13
2018-09-30T00:55:22.724Z,28.13
2018-09-30T00:56:22.743Z,28.13
2018-09-30T00:57:22.770Z,28.13
2018-09-30T00:58:22.783Z,28.13
2018-09-30T00:59:22.803Z,28.13
2018-09-30T01:00:22.825Z,28.13
2018-09-30T01:01:22.849Z,28.13
2018-09-30T01:02:22.864Z,28.13
2018-09-30T01:03:22.885Z,28.13
2018-09-30T01:04:22.908Z,28.13
2018-09-30T01:05:22.984Z,28.13
2018-09-30T01:06:22.999Z,28.13
2018-09-30T01:07:23.021Z,28.13
2018-09-30T01:08:23.043Z,28.13
2018-09-30T01:09:23.078Z,28.13
2018-09-30T01:10:23.076Z,28.13
2018-09-30T01:11:23.117Z,28.13
2018-09-30T01:12:23.139Z,28.13
2018-09-30T01:13:23.144Z,28.13
2018-09-30T01:14:23.183Z,22.50
2018-09-30T01:15:23.211Z,22.50
2018-09-30T01:16:23.207Z,22.50
2018-09-30T01:17:23.226Z,22.50
2018-09-30T01:18:23.245Z,22.50
2018-09-30T01:19:23.256Z,22.50
2018-09-30T01:20:23.300Z,22.50
2018-09-30T01:21:23.310Z,22.50
2018-09-30T01:22:23.330Z,22.50
2018-09-30T01:23:23.347Z,22.50
2018-09-30T01:24:23.369Z,22.50
2018-09-30T01:25:23.402Z,22.50
2018-09-30T01:26:23.436Z,22.50
2018-09-30T01:27:23.431Z,22.50
2018-09-30T01:28:23.495Z,22.50
2018-09-30T01:29:23.475Z,22.50
2018-09-30T01:30:23.505Z,22.50
2018-09-30T01:31:23.529Z,22.50
2018-09-30T01:32:24.250Z,22.50
2018-09-30T01:33:23.570Z,22.50
2018-09-30T01:34:23.577Z,22.50
2018-09-30T01:35:23.594Z,22.50
2018-09-30T01:36:23.636Z,22.50
2018-09-30T01:37:23.643Z,22.50
2018-09-30T01:38:23.655Z,22.50
2018-09-30T01:39:23.698Z,22.50
2018-09-30T01:40:23.723Z,22.50
2018-09-30T01:41:23.736Z,22.50
2018-09-30T01:42:23.741Z,22.50
2018-09-30T01:43:23.775Z,22.50
2018-09-30T01:44:23.796Z,22.50
2018-09-30T01:45:23.802Z,22.50
2018-09-30T01:46:23.821Z,22.50
2018-09-30T01:47:23.858Z,22.50
2018-09-30T01:48:23.879Z,22.50
2018-09-30T01:49:23.898Z,22.50
2018-09-30T01:50:23.905Z,22.50
2018-09-30T01:51:23.945Z,22.50
2018-09-30T01:52:23.945Z,22.50
2018-09-30T01:53:23.984Z,28.13
2018-09-30T01:54:23.988Z,28.13
2018-09-30T01:55:24.010Z,28.13
2018-09-30T01:56:24.029Z,22.50
2018-09-30T01:57:24.048Z,22.50
2018-09-30T01:58:24.059Z,28.13
2018-09-30T01:59:24.090Z,22.50
2018-09-30T02:00:24.114Z,22.50
2018-09-30T02:01:24.988Z,22.50
2018-09-30T02:02:24.158Z,28.13
2018-09-30T02:03:24.193Z,28.13
2018-09-30T02:04:24.197Z,28.13
2018-09-30T02:05:24.214Z,28.13
2018-09-30T02:06:24.251Z,28.13
2018-09-30T02:07:24.255Z,28.13
2018-09-30T02:08:24.275Z,28.13
2018-09-30T02:09:24.294Z,28.13
2018-09-30T02:10:24.333Z,28.13
2018-09-30T02:11:24.352Z,28.13
2018-09-30T02:12:24.394Z,28.13
2018-09-30T02:13:24.378Z,28.13
2018-09-30T02:14:24.397Z,28.13
2018-09-30T02:15:24.436Z,28.13
2018-09-30T02:16:24.460Z,28.13
2018-09-30T02:17:24.459Z,28.13
2018-09-30T02:18:24.497Z,28.13
2018-09-30T02:19:24.523Z,28.13
2018-09-30T02:20:24.535Z,28.13
2018-09-30T02:21:24.544Z,28.13
2018-09-30T02:22:24.565Z,28.13
2018-09-30T02:23:24.583Z,28.13
2018-09-30T02:24:24.621Z,28.13
2018-09-30T02:25:24.642Z,28.13
2018-09-30T02:26:24.662Z,28.13
2018-09-30T02:27:24.658Z,28.13
2018-09-30T02:28:24.706Z,28.13
2018-09-30T02:29:24.728Z,28.13
2018-09-30T02:30:24.731Z,28.13
2018-09-30T02:31:24.764Z,28.13
2018-09-30T02:32:24.795Z,28.13
2018-09-30T02:33:25.504Z,28.13
2018-09-30T02:34:24.811Z,28.13
2018-09-30T02:35:24.844Z,28.13
2018-09-30T02:36:24.869Z,28.13
2018-09-30T02:37:24.868Z,28.13
2018-09-30T02:38:24.912Z,28.13
2018-09-30T02:39:24.919Z,28.13
2018-09-30T02:40:24.958Z,28.13
2018-09-30T02:41:24.962Z,28.13
2018-09-30T02:42:24.994Z,28.13
2018-09-30T02:43:25.015Z,28.13
2018-09-30T02:44:25.039Z,28.13
2018-09-30T02:45:25.033Z,28.13
2018-09-30T02:46:25.064Z,28.13
2018-09-30T02:47:25.083Z,28.13
2018-09-30T02:48:25.108Z,28.13
2018-09-30T02:49:25.167Z,28.13
2018-09-30T02:50:25.163Z,28.13
2018-09-30T02:51:25.167Z,28.13
2018-09-30T02:52:25.192Z,28.13
2018-09-30T02:53:25.205Z,28.13
2018-09-30T02:54:25.260Z,28.13
2018-09-30T02:55:25.255Z,28.13
2018-09-30T02:56:25.303Z,28.13
2018-09-30T02:57:25.308Z,28.13
2018-09-30T02:58:25.334Z,28.13
2018-09-30T02:59:25.362Z,33.75
2018-09-30T03:00:25.358Z,33.75
2018-09-30T03:01:25.389Z,33.75
2018-09-30T03:02:25.412Z,33.75
2018-09-30T03:03:25.419Z,33.75
2018-09-30T03:04:25.440Z,33.75
2018-09-30T03:05:25.463Z,33.75
2018-09-30T03:06:25.480Z,33.75
2018-09-30T03:07:25.501Z,33.75
2018-09-30T03:08:25.526Z,33.75
2018-09-30T03:09:25.562Z,33.75
2018-09-30T03:10:25.565Z,33.75
2018-09-30T03:11:25.585Z,33.75
2018-09-30T03:12:25.624Z,33.75
2018-09-30T03:13:25.619Z,33.75
2018-09-30T03:14:25.649Z,33.75
2018-09-30T03:15:25.691Z,33.75
2018-09-30T03:16:25.702Z,33.75
2018-09-30T03:17:25.712Z,33.75
2018-09-30T03:18:25.732Z,33.75
2018-09-30T03:19:25.773Z,33.75
2018-09-30T03:20:25.793Z,33.75
2018-09-30T03:21:25.796Z,33.75
2018-09-30T03:22:25.818Z,33.75
2018-09-30T03:23:25.838Z,33.75
2018-09-30T03:24:25.871Z,33.75
2018-09-30T03:25:25.907Z,33.75
2018-09-30T03:26:25.901Z,33.75
2018-09-30T03:27:25.921Z,33.75
2018-09-30T03:28:25.951Z,33.75
2018-09-30T03:29:25.977Z,33.75
2018-09-30T03:30:25.985Z,33.75
2018-09-30T03:31:26.024Z,33.75
2018-09-30T03:32:26.035Z,33.75
2018-09-30T03:33:26.053Z,33.75
2018-09-30T03:34:26.071Z,33.75
2018-09-30T03:35:26.100Z,33.75
2018-09-30T03:36:26.131Z,33.75
2018-09-30T03:37:26.136Z,33.75
2018-09-30T03:38:26.167Z,33.75
2018-09-30T03:39:26.190Z,33.75
2018-09-30T03:40:26.196Z,33.75
2018-09-30T03:41:26.237Z,33.75
2018-09-30T03:42:26.229Z,33.75
2018-09-30T03:43:26.265Z,33.75
2018-09-30T03:44:26.283Z,33.75
2018-09-30T03:45:26.315Z,33.75
2018-09-30T03:46:26.347Z,33.75
2018-09-30T03:47:26.348Z,33.75
2018-09-30T03:48:26.382Z,33.75
2018-09-30T03:49:26.392Z,33.75
2018-09-30T03:50:26.410Z,39.38
2018-09-30T03:51:26.442Z,39.38
2018-09-30T03:52:26.442Z,39.38
2018-09-30T03:53:26.485Z,33.75
2018-09-30T03:54:26.501Z,33.75
2018-09-30T03:55:26.534Z,33.75
2018-09-30T03:56:26.551Z,33.75
2018-09-30T03:57:26.560Z,33.75
2018-09-30T03:58:26.606Z,33.75
2018-09-30T03:59:26.619Z,33.75
2018-09-30T04:00:26.632Z,33.75
2018-09-30T04:01:26.665Z,33.75
2018-09-30T04:02:26.668Z,39.38
2018-09-30T04:03:26.677Z,39.38
2018-09-30T04:04:26.710Z,33.75
2018-09-30T04:05:26.732Z,33.75
2018-09-30T04:06:26.764Z,33.75
2018-09-30T04:07:26.805Z,33.75
2018-09-30T04:08:26.786Z,33.75
2018-09-30T04:09:26.852Z,33.75
2018-09-30T04:10:26.844Z,33.75
2018-09-30T04:11:26.860Z,33.75
2018-09-30T04:12:26.892Z,33.75
2018-09-30T04:13:26.923Z,33.75
2018-09-30T04:14:26.943Z,33.75
2018-09-30T04:15:26.947Z,33.75
2018-09-30T04:16:26.969Z,33.75
2018-09-30T04:17:27.071Z,33.75
2018-09-30T04:18:27.029Z,33.75
2018-09-30T04:19:27.030Z,33.75
2018-09-30T04:20:27.058Z,33.75
2018-09-30T04:21:27.093Z,33.75
2018-09-30T04:22:27.104Z,33.75
2018-09-30T04:23:27.135Z,33.75
2018-09-30T04:24:27.141Z,33.75
2018-09-30T04:25:27.158Z,33.75
2018-09-30T04:26:27.198Z,33.75
2018-09-30T04:27:27.233Z,39.38
2018-09-30T04:28:27.242Z,39.38
2018-09-30T04:29:27.289Z,39.38
2018-09-30T04:30:27.271Z,39.38
2018-09-30T04:31:27.308Z,39.38
2018-09-30T04:32:27.305Z,39.38
2018-09-30T04:33:27.335Z,39.38
2018-09-30T04:34:27.369Z,39.38
2018-09-30T04:35:27.367Z,39.38
2018-09-30T04:36:27.400Z,39.38
2018-09-30T04:37:27.440Z,39.38
2018-09-30T04:38:27.447Z,39.38
2018-09-30T04:39:27.467Z,39.38
2018-09-30T04:40:27.500Z,39.38
2018-09-30T04:41:27.522Z,39.38
2018-09-30T04:42:27.528Z,39.38
2018-09-30T04:43:27.568Z,39.38
2018-09-30T04:44:27.581Z,39.38
2018-09-30T04:45:27.598Z,39.38
2018-09-30T04:46:27.613Z,39.38
2018-09-30T04:47:27.627Z,39.38
2018-09-30T04:48:27.672Z,39.38
2018-09-30T04:49:27.677Z,39.38
2018-09-30T04:50:27.712Z,39.38
2018-09-30T04:51:27.742Z,45.00
2018-09-30T04:52:27.743Z,45.00
2018-09-30T04:53:27.784Z,45.00
2018-09-30T04:54:27.780Z,45.00
2018-09-30T04:55:27.822Z,45.00
2018-09-30T04:56:27.831Z,50.63
2018-09-30T04:57:27.866Z,50.63
2018-09-30T04:58:27.893Z,50.63
2018-09-30T04:59:27.892Z,50.63
2018-09-30T05:00:27.931Z,50.63
2018-09-30T05:01:27.944Z,56.25
2018-09-30T05:02:27.970Z,56.25
2018-09-30T05:03:27.981Z,56.25
2018-09-30T05:04:28.001Z,50.63
2018-09-30T05:05:28.024Z,50.63
2018-09-30T05:06:28.045Z,56.25
2018-09-30T05:07:28.071Z,56.25
2018-09-30T05:08:28.116Z,56.25
2018-09-30T05:09:28.110Z,56.25
2018-09-30T05:10:28.143Z,61.88
2018-09-30T05:11:28.156Z,61.88
2018-09-30T05:12:28.166Z,67.50
2018-09-30T05:13:28.217Z,67.50
2018-09-30T05:14:28.219Z,61.88
2018-09-30T05:15:28.231Z,67.50
2018-09-30T05:16:28.326Z,67.50
2018-09-30T05:17:28.277Z,67.50
2018-09-30T05:18:28.305Z,67.50
2018-09-30T05:19:28.326Z,73.13
2018-09-30T05:20:28.342Z,67.50
2018-09-30T05:21:28.406Z,56.25
2018-09-30T05:22:28.404Z,56.25
2018-09-30T05:23:28.412Z,56.25
2018-09-30T05:24:28.444Z,56.25
2018-09-30T05:25:28.516Z,56.25
2018-09-30T05:26:28.497Z,73.13
2018-09-30T05:27:28.518Z,73.13
2018-09-30T05:28:28.525Z,61.88
2018-09-30T05:29:28.547Z,61.88
2018-09-30T05:30:28.590Z,67.50
2018-09-30T05:31:28.585Z,61.88
2018-09-30T05:32:28.625Z,73.13
2018-09-30T05:33:28.646Z,73.13
2018-09-30T05:34:28.651Z,67.50
2018-09-30T05:35:28.679Z,73.13
2018-09-30T05:36:28.715Z,73.13
2018-09-30T05:37:28.739Z,67.50
2018-09-30T05:38:29.399Z,67.50
2018-09-30T05:39:28.776Z,61.88
2018-09-30T05:40:28.798Z,61.88
2018-09-30T05:41:28.808Z,61.88
2018-09-30T05:42:28.866Z,67.50
2018-09-30T05:43:28.870Z,78.75
2018-09-30T05:44:28.901Z,78.75
2018-09-30T05:45:29.301Z,78.75
2018-09-30T05:46:28.918Z,73.13
2018-09-30T05:47:28.930Z,78.75
2018-09-30T05:48:28.976Z,73.13
2018-09-30T05:49:28.986Z,67.50
2018-09-30T05:50:29.028Z,67.50
2018-09-30T05:51:29.083Z,67.50
2018-09-30T05:52:29.069Z,61.88
2018-09-30T05:53:29.091Z,67.50
2018-09-30T05:54:29.111Z,78.75
2018-09-30T05:55:29.117Z,73.13
2018-09-30T05:56:29.141Z,78.75
2018-09-30T05:57:29.186Z,90.00
2018-09-30T05:58:29.187Z,84.38
2018-09-30T05:59:29.205Z,84.38
2018-09-30T06:00:29.227Z,78.75
2018-09-30T06:01:29.322Z,78.75
2018-09-30T06:02:29.271Z,73.13
2018-09-30T06:03:29.293Z,73.13
2018-09-30T06:04:29.338Z,73.13
2018-09-30T06:05:29.327Z,73.13
2018-09-30T06:06:29.375Z,73.13
2018-09-30T06:07:29.378Z,84.38
2018-09-30T06:08:29.405Z,95.63
2018-09-30T06:09:29.497Z,95.63
2018-09-30T06:10:29.449Z,90.00
2018-09-30T06:11:29.489Z,78.75
2018-09-30T06:12:29.494Z,73.13
2018-09-30T06:13:29.525Z,67.50
2018-09-30T06:14:29.527Z,61.88
2018-09-30T06:15:29.570Z,61.88
2018-09-30T06:16:29.599Z,56.25
2018-09-30T06:17:29.605Z,56.25
2018-09-30T06:18:29.627Z,61.88
2018-09-30T06:19:29.663Z,67.50
2018-09-30T06:20:29.674Z,61.88
2018-09-30T06:21:29.719Z,61.88
2018-09-30T06:22:29.740Z,67.50
2018-09-30T06:23:29.730Z,73.13
2018-09-30T06:24:29.795Z,73.13
2018-09-30T06:25:29.776Z,78.75
2018-09-30T06:26:29.813Z,73.13
2018-09-30T06:27:29.828Z,78.75
2018-09-30T06:28:29.849Z,84.38
2018-09-30T06:29:29.893Z,84.38
2018-09-30T06:30:29.913Z,84.38
2018-09-30T06:31:29.972Z,90.00
2018-09-30T06:32:29.941Z,101.25
2018-09-30T06:33:29.953Z,95.63
2018-09-30T06:34:29.997Z,95.63
2018-09-30T06:35:30.009Z,90.00
2018-09-30T06:36:30.029Z,84.38
2018-09-30T06:37:30.055Z,84.38
2018-09-30T06:38:30.065Z,90.00
2018-09-30T06:39:30.113Z,84.38
2018-09-30T06:40:30.186Z,90.00
2018-09-30T06:41:30.145Z,95.63
2018-09-30T06:42:30.164Z,95.63
2018-09-30T06:43:30.199Z,84.38
2018-09-30T06:44:30.202Z,90.00
2018-09-30T06:45:30.301Z,78.75
2018-09-30T06:46:30.255Z,78.75
2018-09-30T06:47:30.277Z,73.13
2018-09-30T06:48:30.316Z,67.50
2018-09-30T06:49:30.334Z,67.50
2018-09-30T06:50:30.391Z,56.25
2018-09-30T06:51:30.409Z,50.63
2018-09-30T06:52:30.438Z,50.63
2018-09-30T06:53:30.423Z,50.63
2018-09-30T06:54:30.453Z,50.63
2018-09-30T06:55:30.462Z,50.63
2018-09-30T06:56:30.497Z,50.63
2018-09-30T06:57:30.509Z,45.00
2018-09-30T06:58:30.526Z,45.00
2018-09-30T06:59:30.547Z,50.63
2018-09-30T07:00:30.586Z,50.63
2018-09-30T07:01:30.606Z,56.25
2018-09-30T07:02:30.613Z,61.88
2018-09-30T07:03:30.661Z,67.50
2018-09-30T07:04:30.647Z,67.50
2018-09-30T07:05:30.698Z,56.25
2018-09-30T07:06:30.704Z,50.63
2018-09-30T07:07:30.744Z,50.63
2018-09-30T07:08:30.765Z,50.63
2018-09-30T07:09:30.787Z,61.88
2018-09-30T07:10:30.809Z,50.63
2018-09-30T07:11:30.830Z,45.00
2018-09-30T07:12:30.851Z,39.38
2018-09-30T07:13:30.876Z,45.00
2018-09-30T07:14:30.887Z,39.38
2018-09-30T07:15:30.905Z,33.75
2018-09-30T07:16:30.957Z,33.75
2018-09-30T07:17:30.954Z,33.75
2018-09-30T07:18:30.972Z,33.75
2018-09-30T07:19:30.995Z,33.75
2018-09-30T07:20:31.009Z,33.75
2018-09-30T07:21:31.037Z,33.75
2018-09-30T07:22:31.122Z,33.75
2018-09-30T07:23:31.086Z,28.13
2018-09-30T07:24:31.095Z,28.13
2018-09-30T07:25:31.132Z,28.13
2018-09-30T07:26:31.150Z,28.13
2018-09-30T07:27:31.166Z,28.13
2018-09-30T07:28:31.215Z,28.13
2018-09-30T07:29:31.255Z,28.13
2018-09-30T07:30:31.240Z,28.13
2018-09-30T07:31:31.262Z,22.50
2018-09-30T07:32:31.297Z,22.50
2018-09-30T07:33:31.330Z,22.50
2018-09-30T07:34:31.327Z,22.50
2018-09-30T07:35:31.350Z,22.50
2018-09-30T07:36:31.392Z,22.50
2018-09-30T07:37:31.388Z,28.13
2018-09-30T07:38:31.437Z,28.13
2018-09-30T07:39:31.469Z,28.13
2018-09-30T07:40:31.462Z,28.13
2018-09-30T07:41:31.521Z,33.75
2018-09-30T07:42:31.523Z,33.75
2018-09-30T07:43:31.531Z,33.75
2018-09-30T07:44:31.571Z,33.75
2018-09-30T07:45:31.574Z,33.75
2018-09-30T07:46:31.654Z,39.38
2018-09-30T07:47:31.654Z,39.38
2018-09-30T07:48:31.656Z,39.38
2018-09-30T07:49:31.653Z,39.38
2018-09-30T07:50:31.682Z,39.38
2018-09-30T07:51:31.708Z,45.00
2018-09-30T07:52:31.761Z,45.00
2018-09-30T07:53:31.787Z,45.00
2018-09-30T07:54:31.771Z,45.00
2018-09-30T07:55:31.810Z,45.00
2018-09-30T07:56:31.822Z,50.63
2018-09-30T07:57:31.827Z,50.63
2018-09-30T07:58:31.865Z,50.63
2018-09-30T07:59:31.882Z,50.63
2018-09-30T08:00:31.918Z,50.63
2018-09-30T08:01:31.917Z,56.25
2018-09-30T08:02:31.951Z,84.38
2018-09-30T08:03:31.990Z,90.00
2018-09-30T08:04:31.991Z,90.00
2018-09-30T08:05:32.029Z,95.63
2018-09-30T08:06:32.097Z,101.25
2018-09-30T08:07:32.060Z,101.25
2018-09-30T08:08:32.080Z,95.63
2018-09-30T08:09:32.192Z,90.00
2018-09-30T08:10:32.142Z,84.38
2018-09-30T08:11:32.146Z,84.38
2018-09-30T08:12:32.169Z,78.75
2018-09-30T08:13:32.211Z,73.13
2018-09-30T08:14:32.214Z,61.88
2018-09-30T08:15:32.249Z,45.00
2018-09-30T08:16:32.329Z,33.75
2018-09-30T08:17:32.293Z,33.75
2018-09-30T08:18:32.309Z,28.13
2018-09-30T08:19:32.338Z,28.13
2018-09-30T08:20:32.365Z,28.13
2018-09-30T08:21:32.388Z,28.13
2018-09-30T08:22:32.411Z,22.50
2018-09-30T08:23:32.453Z,22.50
2018-09-30T08:24:32.511Z,22.50
2018-09-30T08:25:32.479Z,22.50
2018-09-30T08:26:32.506Z,22.50
2018-09-30T08:27:32.496Z,22.50
2018-09-30T08:28:32.545Z,22.50
2018-09-30T08:29:32.552Z,22.50
2018-09-30T08:30:32.578Z,22.50
2018-09-30T08:31:32.611Z,22.50
2018-09-30T08:32:32.608Z,28.13
2018-09-30T08:33:32.631Z,28.13
2018-09-30T08:34:32.662Z,28.13
2018-09-30T08:35:32.736Z,28.13
2018-09-30T08:36:32.724Z,28.13
2018-09-30T08:37:32.753Z,28.13
2018-09-30T08:38:32.740Z,28.13
2018-09-30T08:39:32.799Z,28.13
2018-09-30T08:40:32.796Z,28.13
2018-09-30T08:41:32.819Z,28.13
2018-09-30T08:42:32.857Z,28.13
2018-09-30T08:43:32.880Z,28.13
2018-09-30T08:44:32.884Z,28.13
2018-09-30T08:45:32.897Z,28.13
2018-09-30T08:46:32.954Z,22.50
2018-09-30T08:47:33.010Z,22.50
2018-09-30T08:48:32.987Z,22.50
2018-09-30T08:49:33.017Z,22.50
2018-09-30T08:50:33.019Z,22.50
2018-09-30T08:51:33.039Z,22.50
2018-09-30T08:52:33.079Z,22.50
2018-09-30T08:53:33.099Z,22.50
2018-09-30T08:54:33.153Z,22.50
2018-09-30T08:55:33.145Z,22.50
2018-09-30T08:56:33.165Z,22.50
2018-09-30T08:57:33.165Z,22.50
2018-09-30T08:58:33.195Z,22.50
2018-09-30T08:59:33.218Z,22.50
2018-09-30T09:00:33.258Z,22.50
2018-09-30T09:01:33.256Z,22.50
2018-09-30T09:02:33.310Z,22.50
2018-09-30T09:03:33.311Z,22.50
2018-09-30T09:04:33.328Z,22.50
2018-09-30T09:05:33.370Z,28.13
2018-09-30T09:06:33.364Z,28.13
2018-09-30T09:07:33.387Z,28.13
2018-09-30T09:08:33.418Z,33.75
2018-09-30T09:10:33.963Z,39.38
2018-09-30T09:11:33.992Z,39.38
2018-09-30T09:12:34.029Z,45.00
2018-09-30T09:13:34.021Z,45.00
2018-09-30T09:14:34.039Z,45.00
2018-09-30T09:15:34.168Z,50.63
2018-09-30T09:16:35.115Z,50.63
2018-09-30T09:17:34.147Z,50.63
2018-09-30T09:18:34.208Z,56.25
2018-09-30T09:19:34.153Z,50.63
2018-09-30T09:20:34.209Z,50.63
2018-09-30T09:21:34.183Z,45.00
2018-09-30T09:22:35.332Z,45.00
2018-09-30T09:23:34.245Z,45.00
2018-09-30T09:24:34.262Z,39.38
2018-09-30T09:25:34.313Z,39.38
2018-09-30T09:26:34.343Z,39.38
2018-09-30T09:27:35.085Z,33.75
2018-09-30T09:28:35.415Z,39.38
2018-09-30T09:29:34.356Z,39.38
2018-09-30T09:30:34.435Z,45.00
2018-09-30T09:31:34.489Z,45.00
2018-09-30T09:32:34.444Z,45.00
2018-09-30T09:33:34.458Z,45.00
2018-09-30T09:34:35.520Z,45.00
2018-09-30T09:35:34.536Z,45.00
2018-09-30T09:36:34.512Z,45.00
2018-09-30T09:37:34.549Z,39.38
2018-09-30T09:38:34.645Z,39.38
2018-09-30T09:39:34.615Z,39.38
2018-09-30T09:40:35.633Z,39.38
2018-09-30T09:41:34.653Z,33.75
2018-09-30T09:42:34.691Z,39.38
2018-09-30T09:43:34.707Z,33.75
2018-09-30T09:44:34.690Z,33.75
2018-09-30T09:45:34.765Z,33.75
2018-09-30T09:46:35.764Z,28.13
2018-09-30T09:47:34.807Z,28.13
2018-09-30T09:48:34.876Z,28.13
2018-09-30T09:49:34.837Z,22.50
2018-09-30T09:50:34.878Z,22.50
2018-09-30T09:51:34.840Z,22.50
2018-09-30T09:52:35.895Z,16.88
2018-09-30T09:53:34.908Z,16.88
2018-09-30T09:54:34.929Z,16.88
2018-09-30T09:55:34.949Z,16.88
2018-09-30T09:56:34.961Z,16.88
2018-09-30T09:57:34.976Z,11.25
2018-09-30T09:58:36.030Z,11.25
2018-09-30T09:59:35.050Z,11.25
2018-09-30T10:00:35.089Z,11.25
2018-09-30T10:01:35.111Z,11.25
2018-09-30T10:02:35.138Z,11.25
2018-09-30T10:03:35.134Z,11.25
2018-09-30T10:04:36.196Z,11.25
2018-09-30T10:05:35.154Z,11.25
2018-09-30T10:06:35.207Z,11.25
2018-09-30T10:07:35.245Z,11.25
2018-09-30T10:08:35.274Z,11.25
2018-09-30T10:09:35.262Z,11.25
2018-09-30T10:10:36.332Z,5.63
2018-09-30T10:11:35.332Z,5.63
2018-09-30T10:12:35.323Z,5.63
2018-09-30T10:13:35.352Z,5.63
2018-09-30T10:14:35.408Z,5.63
2018-09-30T10:15:35.440Z,5.63
2018-09-30T10:16:37.184Z,5.63
2018-09-30T10:17:35.481Z,5.63
2018-09-30T10:18:35.459Z,5.63
2018-09-30T10:19:35.608Z,5.63
2018-09-30T10:20:35.540Z,5.63
2018-09-30T10:21:35.561Z,5.63
2018-09-30T10:22:36.584Z,5.63
2018-09-30T10:23:35.568Z,5.63
2018-09-30T10:24:35.594Z,5.63
2018-09-30T10:25:35.644Z,5.63
2018-09-30T10:26:35.642Z,5.63
2018-09-30T10:27:35.697Z,0.00
2018-09-30T10:28:36.716Z,0.00
2018-09-30T10:29:35.729Z,0.00
2018-09-30T10:30:35.753Z,0.00
2018-09-30T10:31:36.356Z,0.00
2018-09-30T10:32:35.817Z,0.00
2018-09-30T10:33:35.825Z,0.00
2018-09-30T10:34:36.826Z,0.00
2018-09-30T10:35:35.874Z,0.00
2018-09-30T10:36:36.636Z,0.00
2018-09-30T10:37:36.869Z,0.00
2018-09-30T10:38:36.031Z,0.00
2018-09-30T10:39:35.958Z,0.00
2018-09-30T10:40:36.950Z,0.00
2018-09-30T10:41:35.964Z,0.00
2018-09-30T10:42:35.995Z,0.00
2018-09-30T10:43:35.983Z,0.00
2018-09-30T10:44:36.050Z,0.00
2018-09-30T10:45:36.047Z,0.00
2018-09-30T10:46:37.104Z,0.00
2018-09-30T10:47:36.124Z,0.00
2018-09-30T10:48:36.114Z,0.00
2018-09-30T10:49:36.137Z,0.00
2018-09-30T10:50:36.156Z,0.00
2018-09-30T10:51:36.185Z,0.00
2018-09-30T10:52:37.192Z,0.00
2018-09-30T10:53:36.252Z,0.00
2018-09-30T10:54:36.276Z,0.00
2018-09-30T10:55:36.262Z,0.00
2018-09-30T10:56:37.140Z,0.00
2018-09-30T10:57:36.330Z,0.00
2018-09-30T10:58:37.337Z,0.00
2018-09-30T10:59:36.351Z,0.00
2018-09-30T11:00:36.375Z,0.00
2018-09-30T11:01:36.432Z,0.00
2018-09-30T11:02:36.407Z,0.00
2018-09-30T11:03:36.514Z,0.00
2018-09-30T11:04:37.507Z,0.00
2018-09-30T11:05:36.504Z,0.00
2018-09-30T11:06:36.510Z,0.00
2018-09-30T11:07:36.546Z,0.00
2018-09-30T11:08:37.142Z,0.00
2018-09-30T11:09:36.637Z,0.00
2018-09-30T11:10:37.634Z,0.00
2018-09-30T11:11:36.614Z,0.00
2018-09-30T11:12:36.625Z,0.00
2018-09-30T11:13:36.690Z,0.00
2018-09-30T11:14:36.666Z,0.00
2018-09-30T11:15:37.636Z,0.00
2018-09-30T11:16:37.729Z,0.00
2018-09-30T11:17:36.815Z,0.00
2018-09-30T11:18:36.789Z,0.00
2018-09-30T11:19:36.822Z,0.00
2018-09-30T11:20:36.821Z,0.00
2018-09-30T11:21:36.857Z,0.00
2018-09-30T11:22:37.915Z,0.00
2018-09-30T11:23:36.865Z,0.00
2018-09-30T11:24:36.914Z,0.00
2018-09-30T11:25:36.946Z,0.00
2018-09-30T11:26:36.926Z,0.00
2018-09-30T11:27:36.951Z,0.00
2018-09-30T11:28:37.989Z,0.00
2018-09-30T11:29:37.016Z,0.00
2018-09-30T11:30:37.025Z,0.00
2018-09-30T11:31:37.035Z,0.00
2018-09-30T11:32:37.072Z,0.00
2018-09-30T11:33:37.085Z,0.00
2018-09-30T11:34:38.118Z,0.00
2018-09-30T11:35:37.120Z,0.00
2018-09-30T11:36:37.155Z,0.00
2018-09-30T11:37:37.205Z,0.00
2018-09-30T11:38:37.195Z,0.00
2018-09-30T11:39:37.265Z,0.00
2018-09-30T11:40:38.240Z,0.00
2018-09-30T11:41:37.233Z,0.00
2018-09-30T11:42:37.353Z,0.00
2018-09-30T11:43:37.329Z,0.00
2018-09-30T11:44:37.330Z,0.00
2018-09-30T11:45:37.352Z,0.00
2018-09-30T11:46:38.359Z,0.00
2018-09-30T11:47:37.361Z,0.00
2018-09-30T11:48:37.435Z,0.00
2018-09-30T11:49:37.429Z,0.00
2018-09-30T11:50:37.452Z,0.00
2018-09-30T11:51:37.471Z,0.00
2018-09-30T11:52:38.559Z,0.00
2018-09-30T11:53:37.508Z,0.00
2018-09-30T11:54:37.534Z,0.00
2018-09-30T11:55:37.550Z,0.00
2018-09-30T11:56:37.578Z,0.00
2018-09-30T11:57:37.568Z,0.00
2018-09-30T11:58:38.634Z,0.00
2018-09-30T11:59:37.616Z,0.00
2018-09-30T12:00:37.685Z,0.00
2018-09-30T12:01:37.685Z,0.00
2018-09-30T12:02:37.699Z,0.00
2018-09-30T12:03:37.781Z,0.00
2018-09-30T12:04:38.767Z,0.00
2018-09-30T12:05:37.776Z,0.00
2018-09-30T12:06:37.782Z,0.00
2018-09-30T12:07:37.833Z,0.00
2018-09-30T12:09:55.927Z,0.00
2018-09-30T12:11:00.349Z,0.00
2018-09-30T12:11:56.282Z,0.00
2018-09-30T12:13:03.331Z,0.00
2018-09-30T12:13:54.935Z,0.00
2018-09-30T12:14:58.954Z,0.00
2018-09-30T12:16:03.959Z,0.00
2018-09-30T12:18:56.445Z,0.00
2018-09-30T12:23:00.736Z,0.00
2018-09-30T12:24:02.679Z,0.00
2018-09-30T12:24:57.945Z,0.00
2018-09-30T12:26:04.430Z,0.00
2018-09-30T12:26:59.441Z,0.00
2018-09-30T12:29:04.857Z,0.00
2018-09-30T12:31:03.136Z,0.00
2018-09-30T12:32:03.455Z,0.00
2018-09-30T12:33:03.145Z,0.00
2018-09-30T12:33:57.631Z,0.00
2018-09-30T12:34:58.959Z,0.00
2018-09-30T12:35:57.934Z,0.00
2018-09-30T12:36:56.935Z,0.00
2018-09-30T12:37:55.176Z,0.00
2018-09-30T12:39:03.070Z,0.00
2018-09-30T12:39:55.296Z,0.00
2018-09-30T12:40:54.408Z,0.00
2018-09-30T12:42:05.757Z,0.00
2018-09-30T12:42:58.486Z,0.00
2018-09-30T12:43:57.169Z,0.00
2018-09-30T12:45:05.460Z,0.00
2018-09-30T12:46:01.953Z,0.00
2018-09-30T12:48:03.456Z,0.00
2018-09-30T12:49:04.260Z,0.00
2018-09-30T12:49:55.049Z,0.00
2018-09-30T12:50:54.436Z,0.00
2018-09-30T12:52:00.465Z,0.00
2018-09-30T12:52:55.880Z,0.00
2018-09-30T12:54:01.928Z,0.00
2018-09-30T12:55:05.924Z,0.00
2018-09-30T12:55:54.463Z,0.00
2018-09-30T12:58:59.805Z,0.00
2018-09-30T13:00:00.661Z,0.00
2018-09-30T13:02:08.857Z,0.00
2018-09-30T13:03:59.931Z,0.00
2018-09-30T13:04:58.472Z,0.00
2018-09-30T13:06:01.391Z,0.00
2018-09-30T13:06:57.041Z,0.00
2018-09-30T13:08:03.243Z,0.00
2018-09-30T13:08:59.155Z,0.00
2018-09-30T13:10:04.789Z,0.00
2018-09-30T13:10:54.038Z,0.00
2018-09-30T13:11:54.350Z,0.00
2018-09-30T13:13:04.397Z,0.00
2018-09-30T13:14:58.970Z,0.00
2018-09-30T13:16:58.969Z,0.00
2018-09-30T13:18:00.125Z,0.00
2018-09-30T13:19:01.972Z,0.00
2018-09-30T13:19:56.710Z,0.00
2018-09-30T13:21:01.777Z,0.00
2018-09-30T13:22:05.184Z,0.00
2018-09-30T13:23:09.169Z,0.00
2018-09-30T13:25:01.193Z,0.00
2018-09-30T13:25:51.269Z,0.00